Time;durP1;ratioP1;P1;durP2;ratioP2;P2;SDS_P1;SDS_P2;PMS_P1;PMS_P2;Temp;Humidity;BMP_temperature;BMP_pressure;BME280_temperature;BME280_humidity;BME280_pressure;Samples;Min_cycle;Max_cycle;Signal;HPM_P1;HPM_P2
2023/08/02 00:00:08;;;;;;;1.75;1.30;;;;;;;;;;7308094;19;141529;-76
2023/08/02 00:02:40;;;;;;;2.95;1.90;;;;;;;;;;7304794;19;141369;-78
2023/08/02 00:05:08;;;;;;;2.15;1.70;;;;;;;;;;7303901;19;143132;-77
2023/08/02 00:07:38;;;;;;;2.70;1.65;;;;;;;;;;7306689;19;140522;-78
2023/08/02 00:10:06;;;;;;;1.98;1.50;;;;;;;;;;7303836;19;141009;-77
2023/08/02 00:12:33;;;;;;;1.85;1.50;;;;;;;;;;7305571;19;140925;-78
2023/08/02 00:15:00;;;;;;;2.35;1.70;;;;;;;;;;7304805;19;140786;-77
2023/08/02 00:17:27;;;;;;;4.03;2.13;;;;;;;;;;7303335;19;142669;-78
2023/08/02 00:20:06;;;;;;;1.50;1.40;;;;;;;;;;7305033;19;141892;-77
2023/08/02 00:22:33;;;;;;;1.95;1.40;;;;;;;;;;7304896;19;142966;-76
2023/08/02 00:25:01;;;;;;;1.60;1.50;;;;;;;;;;7329179;19;140598;-77
2023/08/02 00:27:34;;;;;;;2.50;1.90;;;;;;;;;;7327653;19;140507;-76
2023/08/02 00:30:04;;;;;;;2.35;1.52;;;;;;;;;;7320403;19;141321;-77
2023/08/02 00:32:31;;;;;;;1.98;1.60;;;;;;;;;;7309918;19;141194;-77
2023/08/02 00:34:58;;;;;;;1.42;1.30;;;;;;;;;;7313450;19;140268;-78
2023/08/02 00:37:26;;;;;;;1.90;1.60;;;;;;;;;;7309162;19;140708;-76
2023/08/02 00:39:53;;;;;;;1.92;1.60;;;;;;;;;;7306078;19;141715;-77
2023/08/02 00:42:21;;;;;;;2.30;1.77;;;;;;;;;;7303609;19;141481;-76
2023/08/02 00:44:48;;;;;;;1.70;1.60;;;;;;;;;;7304961;19;140789;-76
2023/08/02 00:47:16;;;;;;;1.77;1.67;;;;;;;;;;7304427;19;140694;-76
2023/08/02 00:49:44;;;;;;;1.52;1.40;;;;;;;;;;7305232;19;140814;-75
2023/08/02 00:52:11;;;;;;;2.10;1.80;;;;;;;;;;7305167;19;141901;-76
2023/08/02 00:54:39;;;;;;;2.00;1.70;;;;;;;;;;7305106;19;140500;-75
2023/08/02 00:57:06;;;;;;;2.20;1.77;;;;;;;;;;7305281;19;140441;-75
2023/08/02 00:59:36;;;;;;;1.92;1.60;;;;;;;;;;7303250;19;140727;-75
2023/08/02 01:02:04;;;;;;;1.90;1.52;;;;;;;;;;7305177;19;141127;-75
2023/08/02 01:04:31;;;;;;;1.60;1.50;;;;;;;;;;7302590;19;140670;-75
2023/08/02 01:07:01;;;;;;;1.65;1.55;;;;;;;;;;7305669;19;140556;-75
2023/08/02 01:09:35;;;;;;;2.83;1.80;;;;;;;;;;7302285;19;141104;-75
2023/08/02 01:12:06;;;;;;;1.70;1.60;;;;;;;;;;7304844;19;142684;-75
2023/08/02 01:14:35;;;;;;;1.80;1.70;;;;;;;;;;7302374;19;140655;-76
2023/08/02 01:17:13;;;;;;;2.17;1.70;;;;;;;;;;7301428;19;140528;-75
2023/08/02 01:19:40;;;;;;;1.63;1.52;;;;;;;;;;7302110;19;141333;-76
2023/08/02 01:25:10;;;;;;;1.63;1.50;;;;;;;;;;7297665;19;140510;-76
2023/08/02 01:27:47;;;;;;;1.50;1.40;;;;;;;;;;7304532;19;140675;-76
2023/08/02 01:30:16;;;;;;;2.35;1.70;;;;;;;;;;7303354;19;142134;-76
2023/08/02 01:32:43;;;;;;;1.73;1.63;;;;;;;;;;7304192;19;140759;-77
2023/08/02 01:35:11;;;;;;;2.22;1.70;;;;;;;;;;7303734;19;140737;-76
2023/08/02 01:37:39;;;;;;;2.10;1.60;;;;;;;;;;7302245;19;140423;-76
2023/08/02 01:40:07;;;;;;;1.70;1.60;;;;;;;;;;7300561;19;142024;-76
2023/08/02 01:42:33;;;;;;;1.75;1.63;;;;;;;;;;7301899;19;142530;-76
2023/08/02 01:45:01;;;;;;;1.70;1.60;;;;;;;;;;7303399;19;140564;-76
2023/08/02 01:47:28;;;;;;;1.50;1.40;;;;;;;;;;7303825;19;140334;-77
2023/08/02 01:49:55;;;;;;;1.90;1.70;;;;;;;;;;7302762;19;141260;-77
2023/08/02 01:52:22;;;;;;;2.05;1.63;;;;;;;;;;7302115;19;140994;-77
2023/08/02 01:54:49;;;;;;;1.60;1.50;;;;;;;;;;7301417;19;140641;-76
2023/08/02 01:57:16;;;;;;;3.33;2.33;;;;;;;;;;7296036;19;141185;-76
2023/08/02 01:59:47;;;;;;;1.63;1.52;;;;;;;;;;7302712;19;140999;-75
2023/08/02 02:02:16;;;;;;;1.98;1.77;;;;;;;;;;7302721;19;141881;-75
2023/08/02 02:04:43;;;;;;;1.70;1.60;;;;;;;;;;7304329;19;140183;-75
2023/08/02 02:07:10;;;;;;;1.60;1.50;;;;;;;;;;7303919;19;140628;-75
2023/08/02 02:09:37;;;;;;;1.75;1.60;;;;;;;;;;7300791;19;141812;-75
2023/08/02 02:12:05;;;;;;;1.80;1.70;;;;;;;;;;7301248;19;141563;-75
2023/08/02 02:14:32;;;;;;;1.45;1.35;;;;;;;;;;7300655;19;140696;-76
2023/08/02 02:16:59;;;;;;;2.03;1.83;;;;;;;;;;7305220;19;140526;-75
2023/08/02 02:19:29;;;;;;;1.60;1.50;;;;;;;;;;7301052;19;142495;-76
2023/08/02 02:21:56;;;;;;;1.60;1.50;;;;;;;;;;7301808;19;142578;-74
2023/08/02 02:24:24;;;;;;;1.70;1.60;;;;;;;;;;7301985;19;140792;-75
2023/08/02 02:26:51;;;;;;;1.60;1.50;;;;;;;;;;7302561;19;140532;-75
2023/08/02 02:29:20;;;;;;;1.52;1.42;;;;;;;;;;7302527;19;141231;-75
2023/08/02 02:31:47;;;;;;;1.50;1.40;;;;;;;;;;7300586;19;142015;-75
2023/08/02 02:34:14;;;;;;;1.42;1.33;;;;;;;;;;7300068;19;140656;-76
2023/08/02 02:36:43;;;;;;;1.80;1.52;;;;;;;;;;7300464;19;140546;-76
2023/08/02 02:39:11;;;;;;;1.50;1.30;;;;;;;;;;7299996;19;140539;-77
2023/08/02 02:41:38;;;;;;;1.92;1.83;;;;;;;;;;7299444;19;142566;-76
2023/08/02 02:44:05;;;;;;;2.15;1.60;;;;;;;;;;7302062;19;140623;-76
2023/08/02 02:46:32;;;;;;;2.05;1.67;;;;;;;;;;7300025;19;140326;-76
2023/08/02 02:48:59;;;;;;;1.92;1.52;;;;;;;;;;7299917;19;142007;-76
2023/08/02 02:51:26;;;;;;;1.30;1.17;;;;;;;;;;7299668;19;142565;-76
2023/08/02 02:53:53;;;;;;;1.40;1.30;;;;;;;;;;7299785;19;140689;-76
2023/08/02 02:56:20;;;;;;;1.50;1.40;;;;;;;;;;7303654;19;140483;-76
2023/08/02 02:58:47;;;;;;;1.45;1.35;;;;;;;;;;7299330;19;140956;-76
2023/08/02 03:01:15;;;;;;;1.40;1.30;;;;;;;;;;7300036;19;141075;-76
2023/08/02 03:03:42;;;;;;;1.30;1.20;;;;;;;;;;7300504;19;140577;-76
2023/08/02 03:06:09;;;;;;;1.40;1.30;;;;;;;;;;7309887;19;140591;-78
2023/08/02 03:08:36;;;;;;;1.50;1.40;;;;;;;;;;7309702;19;141332;-76
2023/08/02 03:11:03;;;;;;;1.50;1.40;;;;;;;;;;7309626;19;142761;-77
2023/08/02 03:13:30;;;;;;;1.60;1.50;;;;;;;;;;7308577;19;140460;-77
2023/08/02 03:15:57;;;;;;;1.52;1.42;;;;;;;;;;7308344;19;140549;-77
2023/08/02 03:18:25;;;;;;;1.50;1.40;;;;;;;;;;7305413;19;141565;-76
2023/08/02 03:20:52;;;;;;;1.48;1.30;;;;;;;;;;7307936;19;141852;-77
2023/08/02 03:23:19;;;;;;;1.60;1.50;;;;;;;;;;7306489;19;140553;-78
2023/08/02 03:25:46;;;;;;;1.73;1.48;;;;;;;;;;7306168;19;141098;-78
2023/08/02 03:28:13;;;;;;;1.77;1.67;;;;;;;;;;7305807;19;141403;-78
2023/08/02 03:30:40;;;;;;;1.67;1.42;;;;;;;;;;7304413;19;142790;-78
2023/08/02 03:33:07;;;;;;;1.40;1.27;;;;;;;;;;7305321;19;140408;-78
2023/08/02 03:35:36;;;;;;;1.50;1.40;;;;;;;;;;7306764;19;140392;-77
2023/08/02 03:38:18;;;;;;;3.10;2.25;;;;;;;;;;7305136;19;142544;-78
2023/08/02 03:40:45;;;;;;;1.52;1.42;;;;;;;;;;7306094;19;141860;-77
2023/08/02 03:43:12;;;;;;;2.13;1.50;;;;;;;;;;7305965;19;140959;-78
2023/08/02 03:45:39;;;;;;;1.55;1.45;;;;;;;;;;7305653;19;140606;-77
2023/08/02 03:48:06;;;;;;;1.83;1.50;;;;;;;;;;7304615;19;141712;-78
2023/08/02 03:50:34;;;;;;;1.50;1.40;;;;;;;;;;7304844;19;141400;-79
2023/08/02 03:53:01;;;;;;;1.70;1.60;;;;;;;;;;7305103;19;140486;-78
2023/08/02 03:55:28;;;;;;;1.60;1.50;;;;;;;;;;7305156;19;140540;-78
2023/08/02 03:57:55;;;;;;;1.48;1.38;;;;;;;;;;7305102;19;141877;-78
2023/08/02 04:00:23;;;;;;;1.60;1.50;;;;;;;;;;7306335;19;142982;-76
2023/08/02 04:02:50;;;;;;;1.58;1.48;;;;;;;;;;7306031;19;140513;-77
2023/08/02 04:05:23;;;;;;;1.52;1.42;;;;;;;;;;7304299;19;140634;-77
2023/08/02 04:07:51;;;;;;;1.58;1.48;;;;;;;;;;7308339;19;140519;-77
2023/08/02 04:10:18;;;;;;;1.60;1.50;;;;;;;;;;7308412;19;141574;-77
2023/08/02 04:16:01;;;;;;;2.75;1.80;;;;;;;;;;7302166;19;140956;-77
2023/08/02 04:21:45;;;;;;;1.83;1.50;;;;;;;;;;7305582;19;140610;-77
2023/08/02 04:24:12;;;;;;;1.48;1.38;;;;;;;;;;7305565;19;140360;-76
2023/08/02 04:26:39;;;;;;;1.55;1.45;;;;;;;;;;7306856;19;140981;-76
2023/08/02 04:29:06;;;;;;;1.55;1.38;;;;;;;;;;7305775;19;141831;-76
2023/08/02 04:31:34;;;;;;;1.63;1.42;;;;;;;;;;7303701;19;142216;-76
2023/08/02 04:34:01;;;;;;;1.45;1.35;;;;;;;;;;7304407;19;140826;-71
2023/08/02 04:36:28;;;;;;;1.50;1.40;;;;;;;;;;7303581;19;140380;-73
2023/08/02 04:38:55;;;;;;;2.33;1.63;;;;;;;;;;7302491;19;140970;-73
2023/08/02 04:41:22;;;;;;;1.30;1.20;;;;;;;;;;7302918;19;142802;-72
2023/08/02 04:43:49;;;;;;;1.60;1.50;;;;;;;;;;7303154;19;140579;-74
2023/08/02 04:46:16;;;;;;;1.40;1.30;;;;;;;;;;7303328;19;140603;-76
2023/08/02 04:48:44;;;;;;;2.75;1.70;;;;;;;;;;7301292;19;141000;-74
2023/08/02 04:51:11;;;;;;;2.20;2.00;;;;;;;;;;7302705;19;140735;-73
2023/08/02 04:53:38;;;;;;;2.42;2.20;;;;;;;;;;7302857;19;140606;-73
2023/08/02 04:56:09;;;;;;;2.90;2.17;;;;;;;;;;7301483;19;140688;-72
2023/08/02 04:58:39;;;;;;;2.95;2.65;;;;;;;;;;7301942;19;140884;-72
2023/08/02 05:07:15;;;;;;;2.78;2.33;;;;;;;;;;7300980;19;140645;-73
2023/08/02 05:09:43;;;;;;;2.75;2.55;;;;;;;;;;7300736;19;140556;-72
2023/08/02 05:12:10;;;;;;;2.40;2.20;;;;;;;;;;7301979;19;142190;-72
2023/08/02 05:14:37;;;;;;;2.30;2.10;;;;;;;;;;7302382;19;140748;-72
2023/08/02 05:17:07;;;;;;;3.33;2.45;;;;;;;;;;7301262;19;140571;-72
2023/08/02 05:19:34;;;;;;;2.17;1.98;;;;;;;;;;7297915;19;144479;-79
2023/08/02 05:22:01;;;;;;;2.10;1.90;;;;;;;;;;7302349;19;142132;-75
2023/08/02 05:24:28;;;;;;;2.95;2.10;;;;;;;;;;7303856;19;140582;-75
2023/08/02 05:26:55;;;;;;;2.15;2.03;;;;;;;;;;7301484;19;140753;-75
2023/08/02 05:29:23;;;;;;;2.67;2.28;;;;;;;;;;7301448;19;140454;-76
2023/08/02 05:31:50;;;;;;;2.63;2.17;;;;;;;;;;7301814;19;142657;-75
2023/08/02 05:34:17;;;;;;;2.30;2.10;;;;;;;;;;7301107;19;140533;-74
2023/08/02 05:36:44;;;;;;;2.38;2.17;;;;;;;;;;7301529;19;140592;-74
2023/08/02 05:39:11;;;;;;;2.50;2.10;;;;;;;;;;7302894;19;141196;-73
2023/08/02 05:41:38;;;;;;;3.22;2.40;;;;;;;;;;7302738;19;141992;-74
2023/08/02 05:44:05;;;;;;;2.22;1.90;;;;;;;;;;7303794;19;140732;-75
2023/08/02 05:46:33;;;;;;;3.35;2.00;;;;;;;;;;7306237;19;140502;-76
2023/08/02 05:49:00;;;;;;;3.13;2.10;;;;;;;;;;7302578;19;141209;-76
2023/08/02 05:51:27;;;;;;;3.08;2.28;;;;;;;;;;7301947;19;141985;-77
2023/08/02 05:53:55;;;;;;;2.60;2.40;;;;;;;;;;7301582;19;140390;-75
2023/08/02 05:56:22;;;;;;;2.10;1.90;;;;;;;;;;7301965;19;140581;-75
2023/08/02 05:58:49;;;;;;;2.22;2.03;;;;;;;;;;7303619;19;141019;-75
2023/08/02 06:01:16;;;;;;;1.65;1.55;;;;;;;;;;7303310;19;140984;-76
2023/08/02 06:03:43;;;;;;;2.10;1.90;;;;;;;;;;7304134;19;140451;-76
2023/08/02 06:06:10;;;;;;;2.80;2.00;;;;;;;;;;7302877;19;140605;-75
2023/08/02 06:08:37;;;;;;;1.88;1.70;;;;;;;;;;7301234;19;141199;-74
2023/08/02 06:11:04;;;;;;;2.05;1.90;;;;;;;;;;7301233;19;141825;-76
2023/08/02 06:13:32;;;;;;;2.22;2.03;;;;;;;;;;7300593;19;140493;-76
2023/08/02 06:15:59;;;;;;;1.90;1.80;;;;;;;;;;7301068;19;140493;-76
2023/08/02 06:18:26;;;;;;;1.90;1.80;;;;;;;;;;7300047;19;141936;-75
2023/08/02 06:20:53;;;;;;;1.73;1.63;;;;;;;;;;7302296;19;143077;-75
2023/08/02 06:23:21;;;;;;;2.05;1.85;;;;;;;;;;7304126;19;140495;-75
2023/08/02 06:25:48;;;;;;;1.92;1.80;;;;;;;;;;7303514;19;140655;-76
2023/08/02 06:28:14;;;;;;;2.00;1.80;;;;;;;;;;7303140;19;140652;-74
2023/08/02 06:30:42;;;;;;;2.20;2.00;;;;;;;;;;7301777;19;142026;-75
2023/08/02 06:33:11;;;;;;;2.00;1.80;;;;;;;;;;7299177;19;141200;-74
2023/08/02 06:39:06;;;;;;;2.00;1.80;;;;;;;;;;7271176;19;142118;-76
2023/08/02 06:45:04;;;;;;;1.75;1.65;;;;;;;;;;7308297;19;140568;-77
2023/08/02 06:47:31;;;;;;;1.88;1.60;;;;;;;;;;7308455;19;140563;-77
2023/08/02 06:49:58;;;;;;;1.70;1.60;;;;;;;;;;7309852;19;141676;-79
2023/08/02 06:52:25;;;;;;;2.10;1.88;;;;;;;;;;7305664;19;142423;-78
2023/08/02 06:54:55;;;;;;;1.70;1.58;;;;;;;;;;7311409;19;140573;-76
2023/08/02 06:57:23;;;;;;;2.00;1.80;;;;;;;;;;7307058;19;140630;-75
2023/08/02 06:59:52;;;;;;;3.05;2.28;;;;;;;;;;7308790;19;141081;-76
2023/08/02 07:02:23;;;;;;;3.00;2.00;;;;;;;;;;7308305;19;143487;-76
2023/08/02 07:04:51;;;;;;;1.90;1.80;;;;;;;;;;7310308;19;141313;-80
2023/08/02 07:07:19;;;;;;;2.50;2.10;;;;;;;;;;7308798;19;140702;-76
2023/08/02 07:09:47;;;;;;;3.15;2.03;;;;;;;;;;7307672;19;140561;-78
2023/08/02 07:12:16;;;;;;;2.30;2.10;;;;;;;;;;7308103;19;140721;-76
2023/08/02 07:14:43;;;;;;;2.95;2.20;;;;;;;;;;7309067;19;140602;-76
2023/08/02 07:17:11;;;;;;;2.72;2.13;;;;;;;;;;7310801;19;140617;-76
2023/08/02 07:19:38;;;;;;;2.13;1.92;;;;;;;;;;7310530;19;140529;-76
2023/08/02 07:22:44;;;;;;;2.65;1.88;;;;;;;;;;7308239;19;140970;-80
2023/08/02 07:25:12;;;;;;;2.60;2.00;;;;;;;;;;7308009;19;140599;-77
2023/08/02 07:27:39;;;;;;;1.98;1.83;;;;;;;;;;7305319;19;140567;-78
2023/08/02 07:32:55;;;;;;;2.17;1.90;;;;;;;;;;7288271;19;140807;-73
2023/08/02 07:41:26;;;;;;;1.83;1.70;;;;;;;;;;7305734;19;140777;-76
2023/08/02 07:43:56;;;;;;;1.98;1.77;;;;;;;;;;7305246;19;140505;-77
2023/08/02 07:46:24;;;;;;;2.10;1.88;;;;;;;;;;7304641;19;140538;-75
2023/08/02 07:48:52;;;;;;;2.05;1.80;;;;;;;;;;7306514;19;140470;-75
2023/08/02 07:51:19;;;;;;;1.80;1.70;;;;;;;;;;7304365;19;140900;-76
2023/08/02 07:53:48;;;;;;;1.55;1.45;;;;;;;;;;7306678;19;141875;-76
2023/08/02 07:56:15;;;;;;;2.03;1.92;;;;;;;;;;7307211;19;140627;-75
2023/08/02 07:58:42;;;;;;;3.05;1.90;;;;;;;;;;7306697;19;140555;-75
2023/08/02 08:01:09;;;;;;;2.10;1.90;;;;;;;;;;7305493;19;141776;-76
2023/08/02 08:03:37;;;;;;;2.38;2.00;;;;;;;;;;7305060;19;142751;-76
2023/08/02 08:06:11;;;;;;;2.08;1.88;;;;;;;;;;7306871;19;140725;-76
2023/08/02 08:08:39;;;;;;;2.00;1.90;;;;;;;;;;7306176;19;140366;-76
2023/08/02 08:11:06;;;;;;;2.10;1.80;;;;;;;;;;7305606;19;141676;-76
2023/08/02 08:13:33;;;;;;;2.35;2.05;;;;;;;;;;7306212;19;141787;-76
2023/08/02 08:16:00;;;;;;;2.22;2.03;;;;;;;;;;7307517;19;140628;-76
2023/08/02 08:18:31;;;;;;;2.50;1.85;;;;;;;;;;7306168;19;140631;-76
2023/08/02 08:21:01;;;;;;;3.30;2.20;;;;;;;;;;7307375;19;140652;-76
2023/08/02 08:23:30;;;;;;;2.50;1.95;;;;;;;;;;7306721;19;142634;-77
2023/08/02 08:25:58;;;;;;;2.40;2.15;;;;;;;;;;7307094;19;140390;-77
2023/08/02 08:28:26;;;;;;;2.25;2.00;;;;;;;;;;7303890;19;140606;-77
2023/08/02 08:31:00;;;;;;;2.25;1.73;;;;;;;;;;7304028;19;142083;-77
2023/08/02 08:33:27;;;;;;;2.20;2.00;;;;;;;;;;7303657;19;142549;-76
2023/08/02 08:35:54;;;;;;;2.42;2.20;;;;;;;;;;7304459;19;140547;-76
2023/08/02 08:38:21;;;;;;;3.05;2.17;;;;;;;;;;7305472;19;140464;-77
2023/08/02 08:40:52;;;;;;;2.28;2.08;;;;;;;;;;7302906;19;141271;-76
2023/08/02 08:43:24;;;;;;;2.55;2.25;;;;;;;;;;7306729;19;141804;-77
2023/08/02 08:45:52;;;;;;;2.55;2.35;;;;;;;;;;7305250;19;140648;-76
2023/08/02 08:48:19;;;;;;;2.45;1.90;;;;;;;;;;7303502;19;140798;-76
2023/08/02 08:50:46;;;;;;;2.85;2.47;;;;;;;;;;7306583;19;141578;-77
2023/08/02 08:53:17;;;;;;;3.63;2.50;;;;;;;;;;7304470;19;142146;-75
2023/08/02 08:55:44;;;;;;;;;;;;;;;;;;7305577;19;140492;-77
2023/08/02 08:58:11;;;;;;;2.78;2.40;;;;;;;;;;7306160;19;140455;-76
2023/08/02 09:00:38;;;;;;;2.60;2.40;;;;;;;;;;7304051;19;141694;-76
2023/08/02 09:03:06;;;;;;;3.28;2.38;;;;;;;;;;7303327;19;140881;-76
2023/08/02 09:05:34;;;;;;;3.13;2.50;;;;;;;;;;7305763;19;140480;-75
2023/08/02 09:08:01;;;;;;;2.75;2.22;;;;;;;;;;7307499;19;140363;-75
2023/08/02 09:10:28;;;;;;;3.08;2.45;;;;;;;;;;7312319;19;142029;-75
2023/08/02 09:12:55;;;;;;;3.45;2.50;;;;;;;;;;7333415;19;140859;-75
2023/08/02 09:15:22;;;;;;;3.13;2.58;;;;;;;;;;7334226;19;139267;-76
2023/08/02 09:17:50;;;;;;;4.47;2.60;;;;;;;;;;7334352;19;140145;-75
2023/08/02 09:20:22;;;;;;;3.25;2.38;;;;;;;;;;7333146;19;141892;-74
2023/08/02 09:22:49;;;;;;;3.42;2.42;;;;;;;;;;7333197;19;140406;-75
2023/08/02 09:25:23;;;;;;;2.83;2.22;;;;;;;;;;7315786;19;140466;-75
2023/08/02 09:27:51;;;;;;;2.97;2.70;;;;;;;;;;7302389;19;140411;-74
2023/08/02 09:30:25;;;;;;;2.58;2.38;;;;;;;;;;7301187;19;140960;-75
2023/08/02 09:33:00;;;;;;;2.78;2.53;;;;;;;;;;7302853;19;140597;-75
2023/08/02 09:35:27;;;;;;;3.03;2.70;;;;;;;;;;7304135;19;140729;-76
2023/08/02 09:37:54;;;;;;;2.67;2.47;;;;;;;;;;7306040;19;140751;-76
2023/08/02 09:40:34;;;;;;;3.28;2.70;;;;;;;;;;7305444;19;140471;-76
2023/08/02 09:43:10;;;;;;;3.63;2.40;;;;;;;;;;7302504;19;142460;-76
2023/08/02 09:45:37;;;;;;;3.10;2.70;;;;;;;;;;7304570;19;140473;-76
2023/08/02 09:48:04;;;;;;;2.58;2.38;;;;;;;;;;7305294;19;140983;-76
2023/08/02 09:50:31;;;;;;;2.70;2.50;;;;;;;;;;7304408;19;140718;-76
2023/08/02 09:53:13;;;;;;;3.25;2.50;;;;;;;;;;7304533;19;140850;-76
2023/08/02 09:55:45;;;;;;;3.22;2.50;;;;;;;;;;7303604;19;140495;-77
2023/08/02 09:58:12;;;;;;;2.33;2.13;;;;;;;;;;7301904;19;140515;-76
2023/08/02 10:00:40;;;;;;;2.58;2.38;;;;;;;;;;7299595;19;141157;-76
2023/08/02 10:03:07;;;;;;;2.67;2.40;;;;;;;;;;7300929;19;143232;-76
2023/08/02 10:05:50;;;;;;;2.40;2.15;;;;;;;;;;7301289;19;140653;-76
2023/08/02 10:08:17;;;;;;;2.50;2.30;;;;;;;;;;7301922;19;140512;-76
2023/08/02 10:10:45;;;;;;;2.22;2.03;;;;;;;;;;7300793;19;140998;-76
2023/08/02 10:13:14;;;;;;;2.55;2.35;;;;;;;;;;7302028;19;141506;-76
2023/08/02 10:15:41;;;;;;;3.20;2.35;;;;;;;;;;7308710;19;140609;-78
2023/08/02 10:18:08;;;;;;;2.25;2.05;;;;;;;;;;7307656;19;140951;-76
2023/08/02 10:20:36;;;;;;;2.55;2.35;;;;;;;;;;7307518;19;141554;-77
2023/08/02 10:23:04;;;;;;;2.40;2.20;;;;;;;;;;7307151;19;142052;-76
2023/08/02 10:25:35;;;;;;;2.63;2.42;;;;;;;;;;7308664;19;140818;-77
2023/08/02 10:28:02;;;;;;;2.47;2.28;;;;;;;;;;7310316;19;140643;-76
2023/08/02 10:30:32;;;;;;;2.60;2.40;;;;;;;;;;7309651;19;141807;-75
2023/08/02 10:33:13;;;;;;;2.40;2.20;;;;;;;;;;7308790;19;140507;-75
2023/08/02 10:35:53;;;;;;;2.28;2.08;;;;;;;;;;7307983;19;140501;-75
2023/08/02 10:38:47;;;;;;;2.40;2.20;;;;;;;;;;7306677;19;140439;-76
2023/08/02 10:41:19;;;;;;;2.72;2.30;;;;;;;;;;7307804;19;140817;-75
2023/08/02 10:43:56;;;;;;;2.55;2.10;;;;;;;;;;7307079;19;142714;-75
2023/08/02 10:46:26;;;;;;;2.47;2.10;;;;;;;;;;7310414;19;140493;-76
2023/08/02 10:48:54;;;;;;;2.60;2.40;;;;;;;;;;7311826;19;140691;-76
2023/08/02 10:51:27;;;;;;;2.40;2.20;;;;;;;;;;7308324;19;141067;-77
2023/08/02 10:54:13;;;;;;;2.58;2.38;;;;;;;;;;7306737;19;142486;-76
2023/08/02 10:56:53;;;;;;;2.38;2.17;;;;;;;;;;7307291;19;140505;-77
2023/08/02 10:59:23;;;;;;;2.58;2.25;;;;;;;;;;7307546;19;140769;-77
2023/08/02 11:01:57;;;;;;;2.17;1.98;;;;;;;;;;7308556;19;141766;-77
2023/08/02 11:04:25;;;;;;;2.13;1.92;;;;;;;;;;7310195;19;141045;-78
2023/08/02 11:06:52;;;;;;;2.20;2.00;;;;;;;;;;7308649;19;140538;-76
2023/08/02 11:09:31;;;;;;;2.85;2.30;;;;;;;;;;7309166;19;140903;-77
2023/08/02 11:12:11;;;;;;;2.72;2.30;;;;;;;;;;7308339;19;140806;-76
2023/08/02 11:14:39;;;;;;;2.30;2.03;;;;;;;;;;7307859;19;140858;-76
2023/08/02 11:17:07;;;;;;;2.30;2.10;;;;;;;;;;7308385;19;140468;-76
2023/08/02 11:19:37;;;;;;;2.90;2.13;;;;;;;;;;7308703;19;140561;-76
2023/08/02 11:22:06;;;;;;;2.15;2.00;;;;;;;;;;7308393;19;141285;-76
2023/08/02 11:24:47;;;;;;;2.55;2.17;;;;;;;;;;7307198;19;141992;-77
2023/08/02 11:27:21;;;;;;;2.45;2.05;;;;;;;;;;7307144;19;140528;-76
2023/08/02 11:30:01;;;;;;;2.70;2.33;;;;;;;;;;7308673;19;140640;-76
2023/08/02 11:32:34;;;;;;;2.30;2.10;;;;;;;;;;7307222;19;141307;-77
2023/08/02 11:35:01;;;;;;;2.35;2.15;;;;;;;;;;7308160;19;140780;-77
2023/08/02 11:37:28;;;;;;;2.30;2.10;;;;;;;;;;7309334;19;140621;-76
2023/08/02 11:39:56;;;;;;;2.22;1.95;;;;;;;;;;7305981;19;140595;-76
2023/08/02 11:42:26;;;;;;;2.25;2.05;;;;;;;;;;7303698;19;141440;-77
2023/08/02 11:44:53;;;;;;;2.25;2.08;;;;;;;;;;7306002;19;143360;-77
2023/08/02 11:47:33;;;;;;;2.58;1.80;;;;;;;;;;7305606;19;140565;-77
2023/08/02 11:50:00;;;;;;;2.08;1.83;;;;;;;;;;7304328;19;140528;-77
2023/08/02 11:52:29;;;;;;;2.75;2.10;;;;;;;;;;7305405;19;141007;-76
2023/08/02 11:54:56;;;;;;;4.40;2.00;;;;;;;;;;7304215;19;142553;-77
2023/08/02 11:57:24;;;;;;;2.80;1.90;;;;;;;;;;7304925;19;140660;-76
2023/08/02 11:59:59;;;;;;;2.22;1.65;;;;;;;;;;7302808;19;140406;-77
2023/08/02 12:02:29;;;;;;;2.05;1.80;;;;;;;;;;7304029;19;140832;-76
2023/08/02 12:04:56;;;;;;;2.90;1.95;;;;;;;;;;7303725;19;142549;-76
2023/08/02 12:07:24;;;;;;;3.05;1.80;;;;;;;;;;7305079;19;140536;-76
2023/08/02 12:09:51;;;;;;;2.17;1.92;;;;;;;;;;7304021;19;140727;-75
2023/08/02 12:12:18;;;;;;;3.85;2.17;;;;;;;;;;7304360;19;141637;-74
2023/08/02 12:14:45;;;;;;;2.72;2.05;;;;;;;;;;7304798;19;142136;-75
2023/08/02 12:17:19;;;;;;;2.80;1.80;;;;;;;;;;7306649;19;140348;-75
2023/08/02 12:19:48;;;;;;;4.18;2.20;;;;;;;;;;7306762;19;140554;-76
2023/08/02 12:22:16;;;;;;;3.30;1.98;;;;;;;;;;7306268;19;141124;-75
2023/08/02 12:24:43;;;;;;;4.53;1.90;;;;;;;;;;7305419;19;140833;-77
2023/08/02 12:27:11;;;;;;;3.22;1.70;;;;;;;;;;7306011;19;140634;-75
2023/08/02 12:29:42;;;;;;;2.55;1.70;;;;;;;;;;7306074;19;140548;-76
2023/08/02 12:32:10;;;;;;;3.63;1.77;;;;;;;;;;7304390;19;141336;-75
2023/08/02 12:34:37;;;;;;;3.45;1.80;;;;;;;;;;7301039;19;141037;-75
2023/08/02 12:37:05;;;;;;;3.60;1.80;;;;;;;;;;7306310;19;140447;-75
2023/08/02 12:39:32;;;;;;;4.05;1.70;;;;;;;;;;7302927;19;140424;-76
2023/08/02 12:42:00;;;;;;;3.28;1.60;;;;;;;;;;7303193;19;141945;-76
2023/08/02 12:44:27;;;;;;;3.45;1.60;;;;;;;;;;7302373;19;141887;-77
2023/08/02 12:46:54;;;;;;;2.42;1.70;;;;;;;;;;7303407;19;140598;-77
2023/08/02 12:49:21;;;;;;;4.00;1.73;;;;;;;;;;7303562;19;140295;-76
2023/08/02 12:51:48;;;;;;;4.45;1.70;;;;;;;;;;7301828;19;141837;-75
2023/08/02 12:54:15;;;;;;;4.50;1.80;;;;;;;;;;7302926;19;142375;-74
2023/08/02 12:56:42;;;;;;;3.95;1.65;;;;;;;;;;7303008;19;140683;-72
2023/08/02 12:59:10;;;;;;;3.60;2.15;;;;;;;;;;7302995;19;140764;-73
2023/08/02 13:01:38;;;;;;;2.58;1.55;;;;;;;;;;7304963;19;140548;-78
2023/08/02 13:04:05;;;;;;;3.50;1.98;;;;;;;;;;7302898;19;141100;-73
2023/08/02 13:06:32;;;;;;;2.65;1.35;;;;;;;;;;7302366;19;140782;-74
2023/08/02 13:09:13;;;;;;;3.53;1.35;;;;;;;;;;7303195;19;140525;-73
2023/08/02 13:11:43;;;;;;;4.20;1.50;;;;;;;;;;7305575;19;142014;-75
2023/08/02 13:14:12;;;;;;;3.70;1.45;;;;;;;;;;7304513;19;142991;-72
2023/08/02 13:16:39;;;;;;;4.10;1.35;;;;;;;;;;7304260;19;140458;-74
2023/08/02 13:19:07;;;;;;;5.18;1.63;;;;;;;;;;7303905;19;140718;-75
2023/08/02 13:21:34;;;;;;;5.03;1.83;;;;;;;;;;7300436;19;141552;-71
2023/08/02 13:24:01;;;;;;;4.35;1.40;;;;;;;;;;7300919;19;142120;-73
2023/08/02 13:26:28;;;;;;;4.00;1.42;;;;;;;;;;7301671;19;140443;-72
2023/08/02 13:28:57;;;;;;;5.53;1.65;;;;;;;;;;7301646;19;140656;-72
2023/08/02 13:31:24;;;;;;;5.32;1.50;;;;;;;;;;7300864;19;141657;-73
2023/08/02 13:33:51;;;;;;;4.30;1.50;;;;;;;;;;7301190;19;143046;-72
2023/08/02 13:36:20;;;;;;;6.45;1.67;;;;;;;;;;7301478;19;140638;-74
2023/08/02 13:38:47;;;;;;;4.90;1.58;;;;;;;;;;7301377;19;140571;-74
2023/08/02 13:41:14;;;;;;;7.43;1.80;;;;;;;;;;7301127;19;142449;-73
2023/08/02 13:43:43;;;;;;;7.13;1.75;;;;;;;;;;7301412;19;142539;-73
2023/08/02 13:46:13;;;;;;;4.40;1.63;;;;;;;;;;7300937;19;140598;-72
2023/08/02 13:48:40;;;;;;;7.05;1.80;;;;;;;;;;7299973;19;140548;-72
2023/08/02 13:51:07;;;;;;;7.15;1.50;;;;;;;;;;7299923;19;141022;-73
2023/08/02 13:53:36;;;;;;;4.63;1.55;;;;;;;;;;7301775;19;141208;-71
2023/08/02 13:56:04;;;;;;;5.20;1.95;;;;;;;;;;7301071;19;140555;-71
2023/08/02 13:58:31;;;;;;;5.10;1.38;;;;;;;;;;7300694;19;140503;-72
2023/08/02 14:00:59;;;;;;;8.70;2.00;;;;;;;;;;7301667;19;140446;-72
2023/08/02 14:03:26;;;;;;;6.70;1.65;;;;;;;;;;7299336;19;142850;-73
2023/08/02 14:05:54;;;;;;;7.38;1.90;;;;;;;;;;7300337;19;140606;-72
2023/08/02 14:08:21;;;;;;;6.63;1.63;;;;;;;;;;7300307;19;140776;-73
2023/08/02 14:10:48;;;;;;;5.32;1.58;;;;;;;;;;7300236;19;141539;-73
2023/08/02 14:13:15;;;;;;;6.65;1.95;;;;;;;;;;7300149;19;142244;-71
2023/08/02 14:15:48;;;;;;;8.02;1.80;;;;;;;;;;7300826;19;140863;-71
2023/08/02 14:18:17;;;;;;;4.38;1.30;;;;;;;;;;7300858;19;140511;-73
2023/08/02 14:20:45;;;;;;;6.22;1.70;;;;;;;;;;7297623;19;141054;-73
2023/08/02 14:23:13;;;;;;;6.30;1.30;;;;;;;;;;7299005;19;140894;-74
2023/08/02 14:25:40;;;;;;;6.88;1.80;;;;;;;;;;7300654;19;140758;-74
2023/08/02 14:28:08;;;;;;;6.82;1.73;;;;;;;;;;7299340;19;140761;-74
2023/08/02 14:30:38;;;;;;;6.90;1.98;;;;;;;;;;7297408;19;141591;-75
2023/08/02 14:33:06;;;;;;;8.95;1.75;;;;;;;;;;7298463;19;142029;-76
2023/08/02 14:35:33;;;;;;;5.82;1.60;;;;;;;;;;7298107;19;140817;-75
2023/08/02 14:38:01;;;;;;;5.55;1.30;;;;;;;;;;7298220;19;140570;-74
2023/08/02 14:40:28;;;;;;;6.38;1.90;;;;;;;;;;7299481;19;140551;-77
2023/08/02 14:42:56;;;;;;;7.30;1.52;;;;;;;;;;7300305;19;141903;-76
2023/08/02 14:45:23;;;;;;;6.72;1.55;;;;;;;;;;7299955;19;140787;-75
2023/08/02 14:47:54;;;;;;;7.00;1.40;;;;;;;;;;7299532;19;140596;-77
2023/08/02 14:50:26;;;;;;;7.15;1.40;;;;;;;;;;7298250;19;141586;-75
2023/08/02 14:52:55;;;;;;;5.90;1.73;;;;;;;;;;7297635;19;140841;-75
2023/08/02 14:55:22;;;;;;;5.25;1.85;;;;;;;;;;7298487;19;140774;-75
2023/08/02 14:57:49;;;;;;;6.53;1.52;;;;;;;;;;7301285;19;140592;-76
2023/08/02 15:00:17;;;;;;;4.57;1.55;;;;;;;;;;7299585;19;140579;-75
2023/08/02 15:02:44;;;;;;;6.93;1.55;;;;;;;;;;7305492;19;142382;-75
2023/08/02 15:05:12;;;;;;;5.75;1.70;;;;;;;;;;7305977;19;140658;-77
2023/08/02 15:07:41;;;;;;;6.82;1.85;;;;;;;;;;7306650;19;140950;-76
2023/08/02 15:10:10;;;;;;;4.82;1.35;;;;;;;;;;7308737;19;140895;-73